Time;durP1;ratioP1;P1;durP2;ratioP2;P2;SDS_P1;SDS_P2;PMS_P1;PMS_P2;Temp;Humidity;BMP_temperature;BMP_pressure;BME280_temperature;BME280_humidity;BME280_pressure;Samples;Min_cycle;Max_cycle;Signal;HPM_P1;HPM_P2
2021/12/18 00:00:37;;;;;;;10.07;5.70;;;4.80;99.90;;;;;;5050262;28;20091;-49
2021/12/18 00:03:04;;;;;;;10.20;6.65;;;4.70;99.90;;;;;;5050349;28;20048;-49
2021/12/18 00:05:30;;;;;;;14.15;6.38;;;4.80;99.90;;;;;;5050177;28;20143;-50
2021/12/18 00:07:56;;;;;;;10.77;6.20;;;4.70;99.90;;;;;;5017350;28;20057;-49
2021/12/18 00:10:23;;;;;;;10.23;4.65;;;4.70;99.90;;;;;;5050023;28;20037;-49
2021/12/18 00:12:51;;;;;;;8.00;4.38;;;4.70;99.90;;;;;;5052362;28;20071;-50
2021/12/18 00:15:18;;;;;;;8.85;5.60;;;4.70;99.90;;;;;;5067199;28;20025;-49
2021/12/18 00:17:44;;;;;;;9.68;3.85;;;4.60;99.90;;;;;;5062115;28;20550;-49
2021/12/18 00:20:13;;;;;;;7.82;4.05;;;4.60;99.90;;;;;;5030019;28;20032;-49
2021/12/18 00:22:38;;;;;;;9.13;5.30;;;4.60;99.90;;;;;;5064223;28;20036;-50
2021/12/18 00:25:04;;;;;;;7.80;4.28;;;4.60;99.90;;;;;;5038720;28;20034;-50
2021/12/18 00:27:30;;;;;;;4.47;3.00;;;4.60;99.90;;;;;;5000422;28;20045;-50
2021/12/18 00:29:56;;;;;;;8.38;6.00;;;4.60;99.90;;;;;;5036126;28;20029;-49
2021/12/18 00:32:22;;;;;;;9.70;6.15;;;4.60;99.90;;;;;;5035923;28;20034;-49
2021/12/18 00:34:47;;;;;;;11.10;6.45;;;4.50;99.90;;;;;;5050656;28;20033;-50
2021/12/18 00:37:13;;;;;;;7.95;4.93;;;4.60;99.90;;;;;;5035742;28;20405;-49
2021/12/18 00:39:47;;;;;;;5.25;3.58;;;4.70;99.90;;;;;;5000297;28;20061;-49
2021/12/18 00:42:49;;;;;;;13.95;7.28;;;4.60;99.90;;;;;;5036048;28;20453;-50
2021/12/18 00:45:10;;;;;;;6.80;5.10;;;4.50;99.90;;;;;;5035323;28;20044;-49
2021/12/18 00:47:36;;;;;;;12.63;7.95;;;4.50;99.90;;;;;;5033601;28;20378;-50
2021/12/18 00:50:04;;;;;;;9.82;4.55;;;4.60;99.90;;;;;;5050399;28;20069;-50
2021/12/18 00:52:30;;;;;;;8.90;6.28;;;4.50;99.90;;;;;;5033480;28;20461;-50
2021/12/18 00:54:56;;;;;;;8.85;4.55;;;4.50;99.90;;;;;;5033379;28;20076;-49
2021/12/18 00:57:22;;;;;;;12.40;5.68;;;4.50;99.90;;;;;;5050023;28;20087;-49
2021/12/18 00:59:50;;;;;;;10.85;7.65;;;4.60;99.90;;;;;;5033470;28;20381;-50
2021/12/18 01:02:16;;;;;;;9.85;5.20;;;4.60;99.90;;;;;;5035445;28;20373;-50
2021/12/18 01:04:42;;;;;;;5.97;3.65;;;4.60;99.90;;;;;;5035306;28;20025;-49
2021/12/18 01:07:08;;;;;;;9.68;5.50;;;4.50;99.90;;;;;;4999770;28;20567;-49
2021/12/18 01:12:18;;;;;;;9.60;6.05;;;4.50;99.90;;;;;;5033844;28;20060;-50
2021/12/18 01:25:10;;;;;;;12.63;7.72;;;4.60;99.90;;;;;;5034755;28;20115;-49
2021/12/18 01:27:37;;;;;;;13.40;8.68;;;4.50;99.90;;;;;;5034612;28;20492;-49
2021/12/18 01:30:08;;;;;;;13.52;7.75;;;4.60;99.90;;;;;;5034641;28;20033;-50
2021/12/18 01:32:34;;;;;;;15.77;8.03;;;4.60;99.90;;;;;;5032849;28;20034;-50
2021/12/18 01:35:01;;;;;;;11.50;5.18;;;4.70;99.90;;;;;;5032666;28;20274;-49
2021/12/18 01:37:27;;;;;;;8.07;3.55;;;4.60;99.90;;;;;;5034811;28;20034;-49
2021/12/18 01:39:53;;;;;;;8.45;4.20;;;4.40;99.90;;;;;;5034412;28;20083;-49
2021/12/18 01:45:07;;;;;;;7.03;5.33;;;4.40;99.90;;;;;;5034575;28;20368;-49
2021/12/18 01:53:02;;;;;;;10.57;6.43;;;4.40;99.90;;;;;;5034617;28;20142;-49
2021/12/18 01:55:31;;;;;;;9.95;7.10;;;4.30;99.90;;;;;;5034252;28;20026;-49
2021/12/18 01:57:58;;;;;;;16.63;7.90;;;4.20;99.90;;;;;;5034176;28;20029;-49
2021/12/18 02:00:31;;;;;;;14.23;5.63;;;4.30;99.90;;;;;;5034022;28;20057;-50
2021/12/18 02:02:57;;;;;;;12.73;7.97;;;4.20;99.90;;;;;;5034086;28;20535;-49
2021/12/18 02:05:23;;;;;;;14.57;8.00;;;4.30;99.90;;;;;;5034031;28;20025;-49
2021/12/18 02:07:49;;;;;;;14.75;7.63;;;4.20;99.90;;;;;;5033953;28;20033;-49
2021/12/18 02:10:25;;;;;;;15.65;7.68;;;4.30;99.90;;;;;;5034029;28;20025;-49
2021/12/18 02:20:49;;;;;;;9.40;4.70;;;4.20;99.90;;;;;;5034022;28;20033;-49
2021/12/18 02:23:16;;;;;;;14.65;7.57;;;4.10;99.90;;;;;;5033754;28;20448;-50
2021/12/18 02:25:47;;;;;;;16.88;8.52;;;4.20;99.90;;;;;;5033487;28;20030;-49
2021/12/18 02:28:20;;;;;;;13.13;7.32;;;4.30;99.90;;;;;;5033597;28;20034;-49
2021/12/18 02:30:48;;;;;;;13.77;8.50;;;4.40;99.90;;;;;;5033867;28;20030;-50
2021/12/18 02:33:14;;;;;;;10.15;5.20;;;4.40;99.90;;;;;;5048496;28;20043;-49
2021/12/18 02:35:47;;;;;;;15.52;8.80;;;4.30;99.90;;;;;;5033276;28;20026;-49
2021/12/18 02:38:17;;;;;;;14.40;7.88;;;4.30;99.90;;;;;;5033171;28;20030;-49
2021/12/18 02:40:56;;;;;;;14.43;8.70;;;4.30;99.90;;;;;;5033462;28;20393;-49
2021/12/18 02:43:27;;;;;;;20.17;9.02;;;4.40;99.90;;;;;;5033279;28;20037;-49
2021/12/18 02:45:55;;;;;;;15.30;8.43;;;4.50;99.90;;;;;;5033380;28;20116;-50
2021/12/18 02:48:21;;;;;;;15.32;8.15;;;4.60;99.90;;;;;;5033425;28;20091;-49
2021/12/18 02:50:48;;;;;;;15.65;9.23;;;4.60;99.90;;;;;;5033205;28;20036;-49
2021/12/18 02:53:14;;;;;;;17.35;9.40;;;4.70;99.90;;;;;;5033301;28;20056;-49
2021/12/18 02:55:40;;;;;;;16.50;9.63;;;4.70;99.90;;;;;;5033313;28;20473;-49
2021/12/18 02:58:05;;;;;;;13.73;9.18;;;4.80;99.90;;;;;;5033499;28;20025;-49
2021/12/18 03:00:32;;;;;;;12.93;9.23;;;4.80;99.90;;;;;;5033203;28;20103;-49
2021/12/18 03:03:03;;;;;;;15.82;9.43;;;4.70;99.90;;;;;;5031308;28;20618;-49
2021/12/18 03:05:41;;;;;;;16.02;9.27;;;4.80;99.90;;;;;;5047777;28;20045;-49
2021/12/18 03:08:14;;;;;;;14.50;8.85;;;4.90;99.90;;;;;;5032974;28;20041;-49
2021/12/18 03:25:01;;;;;;;7.47;4.57;;;4.70;99.90;;;;;;5031008;28;20171;-49
2021/12/18 03:27:27;;;;;;;14.43;7.75;;;4.60;99.90;;;;;;5030740;28;20045;-49
2021/12/18 03:29:53;;;;;;;13.73;7.30;;;4.60;99.90;;;;;;5014138;28;20038;-49
2021/12/18 03:32:19;;;;;;;12.20;6.60;;;4.40;99.90;;;;;;5030553;28;20033;-49
2021/12/18 03:34:45;;;;;;;12.70;7.40;;;4.50;99.90;;;;;;5030614;28;20022;-49
2021/12/18 03:37:11;;;;;;;17.67;8.18;;;4.60;99.90;;;;;;4997707;28;20393;-49
2021/12/18 03:39:37;;;;;;;11.68;7.28;;;4.50;99.90;;;;;;5030532;28;20076;-49
2021/12/18 03:42:05;;;;;;;12.55;7.45;;;4.50;99.90;;;;;;4980936;28;20044;-49
2021/12/18 03:44:32;;;;;;;15.38;8.00;;;4.50;99.90;;;;;;5010278;28;20413;-49
2021/12/18 03:46:58;;;;;;;13.13;8.57;;;4.60;99.90;;;;;;5010544;28;20061;-49
2021/12/18 03:49:24;;;;;;;12.20;6.95;;;4.70;99.90;;;;;;4980626;28;20042;-49
2021/12/18 03:51:50;;;;;;;15.05;8.38;;;4.70;99.90;;;;;;4982084;28;20037;-49
2021/12/18 03:54:15;;;;;;;21.05;8.93;;;4.80;99.90;;;;;;5014622;28;20072;-49
2021/12/18 03:56:41;;;;;;;15.95;8.52;;;4.70;99.90;;;;;;5014482;28;20420;-49
2021/12/18 03:59:07;;;;;;;11.85;6.88;;;4.90;99.90;;;;;;4996443;28;20110;-49
2021/12/18 04:01:33;;;;;;;12.90;7.47;;;4.70;99.90;;;;;;5036528;28;20037;-49
2021/12/18 04:03:59;;;;;;;13.75;8.05;;;4.70;99.90;;;;;;5036442;28;20078;-49
2021/12/18 04:06:25;;;;;;;14.40;8.40;;;4.70;99.90;;;;;;5035589;28;20029;-49
2021/12/18 04:08:50;;;;;;;10.95;7.78;;;4.70;99.90;;;;;;5035599;28;20026;-49
2021/12/18 04:11:16;;;;;;;13.02;8.18;;;4.70;99.90;;;;;;5036411;28;20029;-49
2021/12/18 04:13:44;;;;;;;15.23;7.30;;;4.60;99.90;;;;;;5035913;28;20104;-49
2021/12/18 04:16:10;;;;;;;15.52;6.93;;;4.70;99.90;;;;;;5035916;28;20124;-50
2021/12/18 04:18:35;;;;;;;9.18;6.63;;;4.40;99.90;;;;;;5036216;28;20029;-49
2021/12/18 04:21:01;;;;;;;13.68;8.20;;;4.40;99.90;;;;;;5035780;28;20025;-49
2021/12/18 04:23:27;;;;;;;9.02;6.35;;;4.40;99.90;;;;;;5036129;28;20500;-49
2021/12/18 04:25:55;;;;;;;11.43;6.43;;;4.20;99.90;;;;;;5035789;28;20104;-49
2021/12/18 04:28:21;;;;;;;14.10;7.22;;;4.20;99.90;;;;;;5035981;28;20045;-49
2021/12/18 04:30:47;;;;;;;11.15;5.68;;;4.20;99.90;;;;;;5035975;28;20032;-49
2021/12/18 04:33:12;;;;;;;10.43;6.13;;;4.10;99.90;;;;;;5035804;28;20030;-49
2021/12/18 04:35:38;;;;;;;5.60;3.20;;;4.10;99.90;;;;;;5035730;28;20643;-49
2021/12/18 04:38:04;;;;;;;12.57;7.18;;;4.10;99.90;;;;;;5040073;28;20559;-49
2021/12/18 04:40:30;;;;;;;13.02;6.88;;;4.00;99.90;;;;;;5073300;28;20478;-49
2021/12/18 04:42:56;;;;;;;8.32;4.85;;;3.90;99.90;;;;;;5039908;28;20045;-49
2021/12/18 04:45:23;;;;;;;12.20;6.68;;;3.80;99.90;;;;;;5073202;28;20032;-49
2021/12/18 04:47:49;;;;;;;7.63;4.22;;;4.00;99.90;;;;;;5073362;28;20146;-49
2021/12/18 04:50:15;;;;;;;13.45;7.88;;;4.00;99.90;;;;;;5073197;28;20100;-49
2021/12/18 04:52:40;;;;;;;11.07;6.65;;;4.10;99.90;;;;;;5073239;28;20496;-49
2021/12/18 04:55:07;;;;;;;10.38;6.93;;;4.20;99.90;;;;;;5073033;28;20540;-50
2021/12/18 04:57:33;;;;;;;13.13;8.02;;;4.30;99.90;;;;;;5039512;28;20202;-49
2021/12/18 04:59:59;;;;;;;13.70;8.07;;;4.30;99.90;;;;;;5055874;28;20064;-49
2021/12/18 05:02:35;;;;;;;12.15;8.13;;;4.40;99.90;;;;;;5072950;28;20051;-49
2021/12/18 05:05:02;;;;;;;12.10;6.78;;;4.40;99.90;;;;;;5072952;28;20041;-49
2021/12/18 05:07:28;;;;;;;11.20;5.95;;;4.30;99.90;;;;;;5071937;28;20045;-49
2021/12/18 05:09:54;;;;;;;8.18;5.47;;;4.30;99.90;;;;;;5016409;28;20117;-49
2021/12/18 05:12:20;;;;;;;15.40;8.45;;;4.20;99.90;;;;;;5015091;28;20489;-49
2021/12/18 05:14:45;;;;;;;12.18;6.45;;;4.20;99.90;;;;;;5031660;28;20029;-49
2021/12/18 05:17:11;;;;;;;15.00;10.10;;;4.20;99.90;;;;;;5032877;28;20136;-49
2021/12/18 05:19:38;;;;;;;9.70;6.07;;;4.20;99.90;;;;;;5034834;28;20026;-50
2021/12/18 05:22:05;;;;;;;13.15;8.02;;;4.20;99.90;;;;;;5034900;28;20492;-49
2021/12/18 05:24:31;;;;;;;13.88;8.02;;;4.20;99.90;;;;;;5034756;28;20026;-49
2021/12/18 05:26:58;;;;;;;13.50;8.43;;;4.10;99.90;;;;;;5034634;28;20040;-49
2021/12/18 05:29:25;;;;;;;12.32;6.93;;;4.20;99.90;;;;;;5034730;28;20030;-49
2021/12/18 05:31:51;;;;;;;13.15;8.63;;;4.20;99.90;;;;;;5034817;28;20465;-49
2021/12/18 05:34:22;;;;;;;13.70;7.68;;;4.30;99.90;;;;;;5034770;28;20092;-49
2021/12/18 05:39:18;;;;;;;9.40;6.63;;;4.20;99.90;;;;;;5034769;28;20827;-49
2021/12/18 05:41:44;;;;;;;13.48;7.75;;;4.10;99.90;;;;;;5034390;28;20025;-49
2021/12/18 05:44:10;;;;;;;14.48;8.02;;;4.20;99.90;;;;;;5015866;28;20042;-49
2021/12/18 05:46:36;;;;;;;13.20;6.60;;;4.20;99.90;;;;;;5034143;28;20455;-49
2021/12/18 05:49:03;;;;;;;12.55;8.18;;;4.20;99.90;;;;;;5049324;28;20034;-49
2021/12/18 05:51:31;;;;;;;12.75;7.82;;;4.20;99.90;;;;;;5034744;28;20460;-49
2021/12/18 05:53:57;;;;;;;11.45;7.60;;;4.20;99.90;;;;;;5034176;28;20030;-49
2021/12/18 05:56:22;;;;;;;12.30;7.70;;;4.20;99.90;;;;;;5034194;28;20036;-50
2021/12/18 05:58:48;;;;;;;14.13;8.77;;;4.20;99.90;;;;;;5051775;28;20040;-49
2021/12/18 06:01:14;;;;;;;12.98;7.22;;;4.20;99.90;;;;;;5002322;28;20036;-49
2021/12/18 06:03:41;;;;;;;12.38;8.43;;;4.20;99.90;;;;;;5018494;28;20053;-49
2021/12/18 06:06:08;;;;;;;10.13;6.30;;;4.20;99.90;;;;;;5051663;28;20188;-49
2021/12/18 06:08:35;;;;;;;12.82;8.23;;;4.10;99.90;;;;;;5018685;28;20135;-49
2021/12/18 06:11:07;;;;;;;13.68;8.30;;;4.00;99.90;;;;;;5050739;28;20044;-49
2021/12/18 06:13:33;;;;;;;15.10;9.13;;;4.10;99.90;;;;;;5050690;28;20055;-49
2021/12/18 06:15:58;;;;;;;17.95;8.90;;;4.10;99.90;;;;;;5034551;28;20052;-49
2021/12/18 06:18:26;;;;;;;13.52;7.53;;;4.10;99.90;;;;;;5034822;28;20047;-50
2021/12/18 06:20:52;;;;;;;10.50;6.38;;;4.10;99.90;;;;;;5034699;28;20037;-50
2021/12/18 06:23:18;;;;;;;12.80;6.57;;;3.90;99.90;;;;;;5034278;28;20512;-49
2021/12/18 06:25:45;;;;;;;13.25;7.35;;;3.90;99.90;;;;;;5051419;28;20044;-49
2021/12/18 06:28:10;;;;;;;11.75;7.88;;;4.00;99.90;;;;;;5049924;28;20392;-50
2021/12/18 06:30:36;;;;;;;13.65;7.97;;;4.00;99.90;;;;;;5021500;28;20037;-50
2021/12/18 06:33:02;;;;;;;12.25;7.32;;;4.10;99.90;;;;;;5032533;28;20052;-50
2021/12/18 06:35:27;;;;;;;10.02;6.47;;;4.10;99.90;;;;;;5058363;28;20079;-50
2021/12/18 06:37:54;;;;;;;14.23;7.95;;;4.10;99.90;;;;;;5033064;28;20116;-50
2021/12/18 06:40:19;;;;;;;14.38;8.18;;;4.10;99.90;;;;;;5032705;28;20056;-49
2021/12/18 06:42:45;;;;;;;11.85;8.18;;;4.10;99.90;;;;;;5031437;28;20056;-49
2021/12/18 06:45:11;;;;;;;10.20;8.05;;;4.20;99.90;;;;;;5032511;28;20033;-49
2021/12/18 06:47:37;;;;;;;13.25;8.20;;;4.20;99.90;;;;;;5030178;28;20057;-49
2021/12/18 06:50:05;;;;;;;18.55;12.80;;;4.30;99.90;;;;;;5031342;28;20436;-54
2021/12/18 06:52:31;;;;;;;16.52;11.25;;;4.40;99.90;;;;;;4985809;28;20954;-51
2021/12/18 06:54:57;;;;;;;15.95;9.80;;;4.30;99.90;;;;;;5002859;28;20068;-49
2021/12/18 06:57:23;;;;;;;18.88;12.60;;;4.20;99.90;;;;;;5032124;28;20113;-56
2021/12/18 06:59:49;;;;;;;15.05;10.60;;;4.30;99.90;;;;;;5031963;28;20092;-49
2021/12/18 07:02:16;;;;;;;14.07;9.93;;;4.30;99.90;;;;;;5029890;28;20021;-50
2021/12/18 07:04:42;;;;;;;16.40;10.60;;;4.20;99.90;;;;;;5031554;28;20029;-56
2021/12/18 07:07:07;;;;;;;14.45;9.43;;;4.30;99.90;;;;;;5032187;28;20037;-56
2021/12/18 07:09:33;;;;;;;14.70;9.45;;;4.30;99.90;;;;;;5030483;28;20079;-56
2021/12/18 07:11:59;;;;;;;15.45;9.50;;;4.30;99.90;;;;;;5031361;28;20075;-55
2021/12/18 07:14:26;;;;;;;16.05;10.02;;;4.20;99.90;;;;;;5028990;28;20022;-54
2021/12/18 07:16:51;;;;;;;14.63;8.90;;;4.20;99.90;;;;;;5029536;28;20124;-55
2021/12/18 07:19:17;;;;;;;15.20;9.48;;;4.30;99.90;;;;;;5026851;28;20421;-54
2021/12/18 07:21:43;;;;;;;13.18;8.85;;;4.40;99.90;;;;;;5029086;28;20030;-58
2021/12/18 07:24:09;;;;;;;15.27;9.88;;;4.50;99.90;;;;;;5034993;28;20048;-55
2021/12/18 07:26:34;;;;;;;20.63;14.13;;;4.50;99.90;;;;;;5035904;28;20124;-55
2021/12/18 07:29:00;;;;;;;9.90;5.35;;;4.30;99.90;;;;;;5035435;28;20164;-55
2021/12/18 07:31:27;;;;;;;8.75;6.70;;;4.20;99.90;;;;;;5033873;28;20036;-53
2021/12/18 07:33:53;;;;;;;17.42;9.25;;;4.20;99.90;;;;;;5037353;28;20393;-54
2021/12/18 07:36:19;;;;;;;20.65;14.63;;;4.40;99.90;;;;;;5036920;28;20033;-54
2021/12/18 07:38:45;;;;;;;21.40;15.35;;;4.40;99.90;;;;;;5037025;28;20033;-56
2021/12/18 07:41:12;;;;;;;23.20;14.38;;;4.50;99.90;;;;;;5035128;28;20120;-55
2021/12/18 07:43:37;;;;;;;14.65;10.45;;;4.50;99.90;;;;;;5036963;28;20031;-53
2021/12/18 07:46:03;;;;;;;15.57;9.93;;;4.60;99.90;;;;;;5051677;28;20108;-52
2021/12/18 07:48:29;;;;;;;34.33;19.67;;;4.50;99.90;;;;;;5036717;28;20555;-52
2021/12/18 07:50:55;;;;;;;18.40;11.45;;;4.60;99.90;;;;;;5036390;28;20029;-54
2021/12/18 07:53:23;;;;;;;11.27;6.72;;;4.60;99.90;;;;;;5034933;28;20384;-51
2021/12/18 07:55:50;;;;;;;17.10;9.18;;;4.50;99.90;;;;;;5031255;28;20046;-52
2021/12/18 07:58:16;;;;;;;16.05;10.18;;;4.60;99.90;;;;;;5034868;28;20105;-56
2021/12/18 08:00:41;;;;;;;18.35;11.40;;;4.60;99.90;;;;;;5031134;28;20120;-50
2021/12/18 08:03:07;;;;;;;16.13;10.07;;;4.60;99.90;;;;;;5031613;28;20029;-56
2021/12/18 08:05:33;;;;;;;16.23;10.60;;;4.60;99.90;;;;;;5027695;28;20044;-54
2021/12/18 08:07:59;;;;;;;14.32;8.52;;;4.70;99.90;;;;;;5036882;28;20038;-51
2021/12/18 08:10:25;;;;;;;15.85;8.77;;;4.70;99.90;;;;;;5044880;28;20112;-49
2021/12/18 08:12:51;;;;;;;15.65;10.50;;;4.70;99.90;;;;;;5040789;28;20341;-54
2021/12/18 08:15:16;;;;;;;20.75;12.93;;;4.90;99.90;;;;;;5036842;28;20428;-56
2021/12/18 08:17:42;;;;;;;31.58;19.63;;;5.00;99.90;;;;;;5042839;28;20057;-56
2021/12/18 08:20:09;;;;;;;70.20;41.58;;;5.10;99.90;;;;;;5074532;28;20037;-55
2021/12/18 08:22:35;;;;;;;44.90;29.25;;;5.20;99.90;;;;;;5021547;28;20107;-50
2021/12/18 08:25:01;;;;;;;19.50;13.48;;;5.50;99.90;;;;;;5031302;28;20029;-46
2021/12/18 08:27:28;;;;;;;41.83;30.73;;;5.60;99.90;;;;;;5033917;28;20041;-50
2021/12/18 08:29:53;;;;;;;42.53;30.90;;;5.80;99.90;;;;;;5031471;28;20068;-50
2021/12/18 08:32:19;;;;;;;30.23;18.95;;;5.90;99.90;;;;;;5027608;28;20026;-45
2021/12/18 08:34:46;;;;;;;25.05;18.63;;;5.90;99.90;;;;;;5026626;28;20021;-48
2021/12/18 08:37:11;;;;;;;23.20;18.17;;;6.10;99.90;;;;;;5032652;28;20045;-51
2021/12/18 08:39:37;;;;;;;18.88;16.63;;;6.30;99.90;;;;;;5024521;28;20539;-47
2021/12/18 08:42:05;;;;;;;18.55;17.00;;;8.30;99.90;;;;;;5058072;28;20462;-50
2021/12/18 08:44:32;;;;;;;16.02;13.73;;;10.40;99.90;;;;;;5027902;28;20053;-50
2021/12/18 08:46:58;;;;;;;19.65;17.85;;;12.30;99.90;;;;;;5030523;28;20469;-49
2021/12/18 08:49:25;;;;;;;14.38;12.63;;;13.70;99.90;;;;;;5029064;28;20033;-47
2021/12/18 08:51:52;;;;;;;17.70;14.32;;;13.30;99.90;;;;;;5037285;28;20025;-49
2021/12/18 08:54:18;;;;;;;25.45;23.30;;;14.00;99.90;;;;;;5032577;28;20076;-48
2021/12/18 08:56:44;;;;;;;32.30;30.25;;;14.50;99.90;;;;;;4998953;28;20079;-48
2021/12/18 08:59:09;;;;;;;24.65;22.58;;;14.70;99.90;;;;;;5008681;28;20038;-51
2021/12/18 09:01:35;;;;;;;18.20;16.60;;;14.90;99.80;;;;;;4998375;28;20037;-50
2021/12/18 09:04:01;;;;;;;16.48;14.77;;;14.40;97.50;;;;;;5041057;28;20063;-48
2021/12/18 09:06:27;;;;;;;16.40;9.65;;;14.80;97.60;;;;;;5042450;28;20029;-47
2021/12/18 09:08:53;;;;;;;22.88;14.07;;;13.00;97.30;;;;;;5041295;28;20025;-47
2021/12/18 09:11:19;;;;;;;15.65;10.88;;;12.10;98.80;;;;;;5034317;28;20111;-50
2021/12/18 09:13:45;;;;;;;19.00;13.80;;;11.20;99.60;;;;;;5028910;28;20549;-49
2021/12/18 09:16:11;;;;;;;15.73;11.88;;;10.80;99.90;;;;;;5009792;28;20041;-50
2021/12/18 09:18:37;;;;;;;16.05;10.70;;;11.90;99.90;;;;;;5077732;28;20501;-50
2021/12/18 09:21:04;;;;;;;17.70;10.57;;;11.60;99.90;;;;;;5030576;28;20028;-50
2021/12/18 09:23:29;;;;;;;13.15;9.45;;;10.60;99.90;;;;;;5032524;28;20052;-47
2021/12/18 09:25:55;;;;;;;13.25;8.55;;;;;;;;;;5032400;28;20442;-51
2021/12/18 09:28:22;;;;;;;17.85;11.30;;;8.90;99.90;;;;;;5029496;28;20033;-49
2021/12/18 09:30:47;;;;;;;21.98;14.30;;;8.50;99.90;;;;;;5046597;28;20492;-50
2021/12/18 09:33:16;;;;;;;21.10;12.50;;;8.50;99.90;;;;;;5031572;28;20029;-48
2021/12/18 09:35:42;;;;;;;18.45;10.40;;;8.10;99.90;;;;;;5032799;28;20471;-48
2021/12/18 09:38:08;;;;;;;21.83;12.48;;;8.00;99.90;;;;;;5025460;28;20532;-49
2021/12/18 09:40:35;;;;;;;20.42;11.43;;;7.80;99.90;;;;;;5046557;28;20063;-48
2021/12/18 09:43:01;;;;;;;14.10;9.82;;;;;;;;;;5049140;28;20488;-48
2021/12/18 09:45:28;;;;;;;15.95;10.80;;;;;;;;;;5013355;28;20465;-48
2021/12/18 09:47:53;;;;;;;17.40;12.15;;;7.50;99.90;;;;;;5048149;28;20082;-50
2021/12/18 09:50:22;;;;;;;13.55;9.55;;;7.50;99.90;;;;;;5049716;28;20033;-51
2021/12/18 09:52:48;;;;;;;13.05;8.85;;;7.40;99.90;;;;;;5045591;28;20028;-48
2021/12/18 09:55:15;;;;;;;15.85;10.23;;;7.30;99.90;;;;;;5050147;28;20119;-50
2021/12/18 09:57:41;;;;;;;12.88;7.97;;;7.30;99.90;;;;;;5049512;28;20040;-49
2021/12/18 10:00:16;;;;;;;15.43;10.02;;;7.30;99.90;;;;;;5015259;28;20432;-47
2021/12/18 10:02:43;;;;;;;11.35;7.60;;;7.30;99.90;;;;;;5017596;28;20045;-48
2021/12/18 10:05:32;;;;;;;14.05;9.27;;;7.30;99.90;;;;;;5031214;28;20118;-44
2021/12/18 10:08:06;;;;;;;87.72;78.00;;;7.30;99.90;;;;;;5046371;28;20555;-48
2021/12/18 10:10:32;;;;;;;15.38;10.07;;;7.30;99.90;;;;;;5010197;28;20038;-46
2021/12/18 10:13:08;;;;;;;17.40;10.35;;;7.40;99.90;;;;;;5047133;28;20048;-47
2021/12/18 10:15:34;;;;;;;13.93;9.50;;;7.50;99.90;;;;;;4965021;28;20403;-46
2021/12/18 10:18:09;;;;;;;25.67;16.35;;;7.40;99.90;;;;;;4995220;28;20042;-47
2021/12/18 10:20:36;;;;;;;36.13;21.20;;;7.50;99.90;;;;;;4997265;28;20564;-49
2021/12/18 10:23:05;;;;;;;33.33;19.63;;;7.50;99.90;;;;;;5004565;28;20409;-48
2021/12/18 10:25:48;;;;;;;21.13;13.57;;;7.60;99.90;;;;;;5001599;28;20038;-53
2021/12/18 10:28:18;;;;;;;104.72;50.63;;;7.60;99.90;;;;;;4998659;28;20041;-48
2021/12/18 10:30:49;;;;;;;20.10;12.25;;;7.50;99.90;;;;;;4977871;28;20039;-51
2021/12/18 10:33:15;;;;;;;45.28;23.63;;;7.50;99.90;;;;;;4995580;28;20034;-51
2021/12/18 10:35:51;;;;;;;14.80;8.13;;;7.60;99.90;;;;;;4990192;28;20445;-52
2021/12/18 10:38:45;;;;;;;47.35;21.83;;;7.70;99.90;;;;;;4985972;28;20125;-51
2021/12/18 10:41:34;;;;;;;38.80;21.73;;;7.80;99.90;;;;;;4993947;28;20157;-51
2021/12/18 10:44:02;;;;;;;174.90;103.07;;;7.70;99.90;;;;;;4988763;28;20038;-51
2021/12/18 10:46:29;;;;;;;57.17;28.70;;;7.90;99.90;;;;;;5011811;28;20045;-48
2021/12/18 10:49:18;;;;;;;49.17;23.42;;;7.80;99.90;;;;;;5055236;28;20652;-48
2021/12/18 10:51:48;;;;;;;43.00;21.30;;;7.60;99.90;;;;;;5074613;28;20556;-51
2021/12/18 10:54:19;;;;;;;31.63;16.17;;;7.80;99.90;;;;;;5030919;28;20033;-48
2021/12/18 10:56:50;;;;;;;21.20;10.35;;;7.80;99.90;;;;;;5024964;28;20037;-50
2021/12/18 10:59:31;;;;;;;36.67;16.38;;;7.50;99.90;;;;;;5024335;28;20044;-49
2021/12/18 11:02:00;;;;;;;13.68;8.93;;;7.20;99.90;;;;;;5024421;28;20087;-51
2021/12/18 11:04:34;;;;;;;15.60;9.50;;;7.10;99.90;;;;;;5031565;28;20031;-48
2021/12/18 11:07:31;;;;;;;34.92;21.05;;;7.00;99.90;;;;;;5028551;28;20029;-53
2021/12/18 11:10:18;;;;;;;28.02;17.48;;;6.90;99.90;;;;;;5027741;28;20037;-54
2021/12/18 11:15:29;;;;;;;23.27;11.23;;;6.90;99.90;;;;;;5044294;28;20140;-56
2021/12/18 11:17:55;;;;;;;17.88;11.65;;;6.90;99.90;;;;;;5036263;28;20095;-55
2021/12/18 11:20:24;;;;;;;32.30;15.48;;;6.90;99.90;;;;;;5021455;28;20049;-54
2021/12/18 11:22:52;;;;;;;18.40;10.88;;;6.90;99.90;;;;;;5030154;28;20116;-49
2021/12/18 11:25:21;;;;;;;21.27;12.57;;;7.00;99.90;;;;;;5040463;28;20038;-52
2021/12/18 11:27:48;;;;;;;21.17;12.27;;;7.00;99.90;;;;;;5028065;28;20048;-51
2021/12/18 11:30:17;;;;;;;20.45;11.52;;;7.20;99.90;;;;;;5032340;28;20033;-53
2021/12/18 11:32:45;;;;;;;18.23;11.00;;;7.20;99.90;;;;;;5029908;28;20030;-49
2021/12/18 11:35:14;;;;;;;23.70;14.32;;;7.00;99.90;;;;;;5028581;28;20112;-51
2021/12/18 11:37:45;;;;;;;12.75;7.03;;;7.10;99.90;;;;;;5024274;28;20021;-49
2021/12/18 11:40:14;;;;;;;17.83;9.45;;;7.00;99.90;;;;;;5030698;28;20030;-53
2021/12/18 11:42:41;;;;;;;15.20;9.50;;;7.00;99.90;;;;;;5029796;28;20034;-55
2021/12/18 11:45:07;;;;;;;14.50;9.27;;;6.90;99.90;;;;;;5029160;28;20072;-55
2021/12/18 11:47:40;;;;;;;18.85;12.98;;;6.90;99.90;;;;;;5013369;28;20136;-56
2021/12/18 11:50:18;;;;;;;16.60;10.18;;;6.90;99.90;;;;;;5045706;28;20440;-50
2021/12/18 11:53:00;;;;;;;16.50;10.27;;;6.90;99.90;;;;;;5024335;28;20369;-47
2021/12/18 11:55:31;;;;;;;13.40;8.48;;;6.90;99.90;;;;;;5019919;28;20112;-49
2021/12/18 11:58:00;;;;;;;10.63;6.15;;;7.00;99.90;;;;;;5031511;28;20021;-48
2021/12/18 12:00:34;;;;;;;12.88;6.38;;;6.70;99.90;;;;;;5023831;28;20049;-50
2021/12/18 12:03:01;;;;;;;16.13;8.90;;;6.60;99.90;;;;;;5029809;28;20037;-47
2021/12/18 12:05:45;;;;;;;14.02;7.78;;;6.70;99.90;;;;;;5022214;28;20030;-51
2021/12/18 12:08:40;;;;;;;8.18;5.35;;;6.70;99.90;;;;;;5029568;28;20374;-47
2021/12/18 12:11:17;;;;;;;14.80;8.45;;;6.60;99.90;;;;;;5030124;28;20072;-45
2021/12/18 12:13:54;;;;;;;8.95;5.03;;;6.60;99.90;;;;;;5033715;28;20635;-50
2021/12/18 12:16:43;;;;;;;10.18;5.40;;;6.50;99.90;;;;;;5032734;28;20128;-48
2021/12/18 12:19:14;;;;;;;13.10;6.90;;;6.50;99.90;;;;;;5032892;28;20037;-51
2021/12/18 12:22:19;;;;;;;15.43;6.95;;;6.50;99.90;;;;;;5032968;28;20037;-47
2021/12/18 12:24:55;;;;;;;11.43;6.80;;;5.60;99.90;;;;;;5033783;28;20515;-49
2021/12/18 12:27:32;;;;;;;8.65;5.30;;;6.60;99.90;;;;;;5032779;28;20139;-47
2021/12/18 12:29:59;;;;;;;10.50;6.70;;;6.40;99.90;;;;;;5033292;28;20469;-49
2021/12/18 12:32:29;;;;;;;11.75;7.05;;;6.50;99.90;;;;;;5032542;28;20363;-50
2021/12/18 12:34:58;;;;;;;58.95;35.90;;;6.50;99.90;;;;;;5029145;28;20044;-49
2021/12/18 12:37:24;;;;;;;10.93;6.10;;;6.40;99.90;;;;;;5033268;28;20552;-49
2021/12/18 12:39:56;;;;;;;14.50;7.60;;;6.40;99.90;;;;;;5031826;28;20033;-48
2021/12/18 12:42:23;;;;;;;12.57;7.22;;;6.40;99.90;;;;;;5010687;28;20041;-47
2021/12/18 12:44:57;;;;;;;10.68;6.95;;;6.50;99.90;;;;;;5041973;28;20719;-50
2021/12/18 12:47:27;;;;;;;12.43;7.05;;;6.60;99.90;;;;;;5008880;28;20049;-46
2021/12/18 12:49:55;;;;;;;13.18;7.57;;;6.80;99.90;;;;;;5042512;28;20060;-46
2021/12/18 12:52:26;;;;;;;14.13;8.85;;;6.80;99.90;;;;;;5043233;28;20049;-47
2021/12/18 12:55:07;;;;;;;11.55;7.07;;;6.70;99.90;;;;;;5039050;28;20029;-51
2021/12/18 12:57:35;;;;;;;11.75;7.82;;;6.80;99.90;;;;;;5034713;28;20029;-47
2021/12/18 13:00:07;;;;;;;8.68;5.30;;;6.80;99.90;;;;;;5030270;28;20088;-50
2021/12/18 13:02:48;;;;;;;10.48;6.05;;;6.70;99.90;;;;;;5030260;28;20424;-50
2021/12/18 13:05:15;;;;;;;11.05;5.38;;;6.70;99.90;;;;;;5032276;28;20029;-47
2021/12/18 13:07:48;;;;;;;11.48;7.30;;;6.70;99.90;;;;;;5030106;28;20544;-50
2021/12/18 13:10:23;;;;;;;10.10;6.78;;;6.70;99.90;;;;;;5029218;28;20044;-48
2021/12/18 13:12:53;;;;;;;13.27;6.93;;;6.70;99.90;;;;;;5030428;28;20034;-48
2021/12/18 13:15:19;;;;;;;13.30;6.85;;;6.80;99.90;;;;;;5044354;28;20047;-46
2021/12/18 13:17:45;;;;;;;10.88;6.43;;;6.90;99.90;;;;;;5047905;28;20045;-46
2021/12/18 13:20:11;;;;;;;18.42;7.72;;;6.90;99.90;;;;;;5021140;28;20041;-48
2021/12/18 13:22:37;;;;;;;13.02;6.75;;;7.00;99.90;;;;;;5032420;28;20025;-52
2021/12/18 13:25:10;;;;;;;14.80;6.13;;;6.80;99.90;;;;;;5029509;28;20540;-47
2021/12/18 13:27:38;;;;;;;12.10;5.65;;;6.80;99.90;;;;;;5059105;28;20134;-47
2021/12/18 13:30:16;;;;;;;10.32;6.88;;;6.80;99.90;;;;;;5027997;28;20124;-50
2021/12/18 13:32:52;;;;;;;9.90;6.25;;;6.80;99.90;;;;;;5044924;28;20125;-46
2021/12/18 13:35:20;;;;;;;14.48;9.90;;;6.70;99.90;;;;;;5028355;28;20107;-49
2021/12/18 13:38:01;;;;;;;13.43;7.53;;;6.60;99.90;;;;;;5032032;28;20385;-47
2021/12/18 13:40:33;;;;;;;10.00;5.80;;;6.50;99.90;;;;;;5042595;28;20041;-50